createdAt,value
2022-10-01T00:01:56.615Z,15.50
2022-10-01T00:04:24.279Z,14.30
2022-10-01T00:06:51.882Z,12.80
2022-10-01T00:09:19.585Z,14.30
2022-10-01T00:11:47.240Z,15.60
2022-10-01T00:14:14.835Z,16.30
2022-10-01T00:16:42.499Z,14.80
2022-10-01T00:19:11.987Z,13.60
2022-10-01T00:21:39.549Z,14.50
2022-10-01T00:24:07.111Z,14.20
2022-10-01T00:26:37.331Z,13.50
2022-10-01T00:29:07.283Z,15.00
2022-10-01T00:31:35.596Z,14.80
2022-10-01T00:34:03.675Z,15.50
2022-10-01T00:36:31.873Z,13.60
2022-10-01T00:39:02.383Z,13.20
2022-10-01T00:41:31.689Z,14.80
2022-10-01T00:44:01.549Z,13.40
2022-10-01T00:46:38.045Z,12.10
2022-10-01T00:49:08.391Z,14.40
2022-10-01T00:51:42.036Z,14.40
2022-10-01T00:54:20.291Z,13.80
2022-10-01T00:56:49.925Z,14.10
2022-10-01T00:59:18.246Z,13.40
2022-10-01T01:01:45.930Z,13.10
2022-10-01T01:04:16.870Z,14.20
2022-10-01T01:06:56.022Z,13.40
2022-10-01T01:09:25.762Z,13.10
2022-10-01T01:11:58.602Z,14.60
2022-10-01T01:14:31.229Z,13.10
2022-10-01T01:17:01.983Z,14.50
2022-10-01T01:19:39.046Z,13.40
2022-10-01T01:22:07.852Z,13.30
2022-10-01T01:24:55.992Z,13.50
2022-10-01T01:27:29.737Z,12.80
2022-10-01T01:30:03.800Z,13.10
2022-10-01T01:32:42.893Z,14.00
2022-10-01T01:35:11.397Z,14.20
2022-10-01T01:37:41.066Z,14.40
2022-10-01T01:40:11.522Z,13.90
2022-10-01T01:42:41.611Z,12.90
2022-10-01T01:45:11.438Z,13.40
2022-10-01T01:47:39.982Z,12.70
2022-10-01T01:50:08.289Z,12.30
2022-10-01T01:52:35.945Z,14.00
2022-10-01T01:55:08.603Z,13.50
2022-10-01T01:57:38.134Z,14.70
2022-10-01T02:00:06.127Z,13.10
2022-10-01T02:02:35.733Z,13.50
2022-10-01T02:05:07.271Z,13.70
2022-10-01T02:07:53.569Z,13.70
2022-10-01T02:10:39.685Z,13.40
2022-10-01T02:13:25.976Z,15.10
2022-10-01T02:16:04.573Z,14.60
2022-10-01T02:18:39.826Z,14.90
2022-10-01T02:21:07.446Z,13.40
2022-10-01T02:23:38.149Z,14.10
2022-10-01T02:26:10.507Z,14.50
2022-10-01T02:28:41.038Z,15.70
2022-10-01T02:31:11.150Z,16.80
2022-10-01T02:33:39.349Z,15.30
2022-10-01T02:36:08.147Z,14.70
2022-10-01T02:38:37.015Z,15.60
2022-10-01T02:41:06.235Z,13.90
2022-10-01T02:43:47.018Z,14.60
2022-10-01T02:46:23.872Z,15.70
2022-10-01T02:48:51.916Z,15.70
2022-10-01T02:51:26.172Z,15.50
2022-10-01T02:53:56.862Z,15.00
2022-10-01T02:56:48.867Z,14.40
2022-10-01T02:59:16.853Z,14.60
2022-10-01T03:01:45.021Z,14.60
2022-10-01T03:04:13.512Z,15.80
2022-10-01T03:06:41.178Z,16.60
2022-10-01T03:09:08.856Z,15.50
2022-10-01T03:11:36.665Z,15.90
2022-10-01T03:14:04.424Z,15.90
2022-10-01T03:16:32.202Z,14.80
2022-10-01T03:18:59.795Z,14.60
2022-10-01T03:21:27.391Z,15.00
2022-10-01T03:23:55.014Z,14.60
2022-10-01T03:26:22.616Z,15.70
2022-10-01T03:28:50.202Z,14.60
2022-10-01T03:31:17.871Z,15.20
2022-10-01T03:33:45.519Z,15.40
2022-10-01T03:36:13.172Z,13.70
2022-10-01T03:38:41.120Z,13.10
2022-10-01T03:41:09.183Z,14.30
2022-10-01T03:43:37.294Z,15.10
2022-10-01T03:46:05.005Z,14.80
2022-10-01T03:48:32.613Z,14.80
2022-10-01T03:51:00.210Z,15.10
2022-10-01T03:53:27.823Z,17.00
2022-10-01T03:55:55.413Z,14.60
2022-10-01T03:58:23.476Z,14.00
2022-10-01T04:00:51.444Z,15.00
2022-10-01T04:03:19.087Z,15.10
2022-10-01T04:05:46.658Z,15.40
2022-10-01T04:08:14.700Z,14.40
2022-10-01T04:10:42.372Z,15.40
2022-10-01T04:13:09.948Z,14.20
2022-10-01T04:15:37.578Z,14.60
2022-10-01T04:18:06.641Z,15.50
2022-10-01T04:20:35.044Z,15.90
2022-10-01T04:23:02.670Z,15.10
2022-10-01T04:25:30.831Z,15.30
2022-10-01T04:27:59.994Z,16.00
2022-10-01T04:30:28.985Z,14.00
2022-10-01T04:32:56.678Z,14.10
2022-10-01T04:35:24.359Z,15.20
2022-10-01T04:38:03.571Z,15.90
2022-10-01T04:40:31.894Z,15.10
2022-10-01T04:42:59.493Z,15.30
2022-10-01T04:45:27.129Z,15.20
2022-10-01T04:47:55.409Z,15.40
2022-10-01T04:50:24.380Z,14.50
2022-10-01T04:52:55.531Z,13.90
2022-10-01T04:58:27.050Z,15.20
2022-10-01T05:01:04.394Z,15.40
2022-10-01T05:03:40.662Z,14.20
2022-10-01T05:06:15.757Z,14.80
2022-10-01T05:08:44.502Z,13.70
2022-10-01T05:14:14.248Z,15.20
2022-10-01T05:19:41.897Z,14.30
2022-10-01T05:22:13.019Z,15.20
2022-10-01T05:30:34.246Z,15.20
2022-10-01T05:33:03.526Z,15.30
2022-10-01T05:35:31.551Z,16.10
2022-10-01T05:38:00.101Z,14.40
2022-10-01T05:40:28.872Z,15.50
2022-10-01T05:42:57.144Z,13.40
2022-10-01T05:45:25.380Z,12.90
2022-10-01T05:47:56.743Z,16.00
2022-10-01T05:50:25.516Z,17.00
2022-10-01T05:52:55.286Z,17.00
2022-10-01T05:55:23.799Z,15.10
2022-10-01T05:58:01.441Z,14.20
2022-10-01T06:00:29.707Z,15.20
2022-10-01T06:02:58.352Z,14.20
2022-10-01T06:05:26.979Z,14.50
2022-10-01T06:07:54.744Z,14.90
2022-10-01T06:10:23.035Z,15.50
2022-10-01T06:12:51.280Z,16.50
2022-10-01T06:15:19.034Z,15.70
2022-10-01T06:17:47.084Z,13.70
2022-10-01T06:20:15.939Z,14.40
2022-10-01T06:22:44.132Z,14.10
2022-10-01T06:25:12.704Z,13.80
2022-10-01T06:27:40.780Z,15.40
2022-10-01T06:30:08.843Z,14.70
2022-10-01T06:32:36.814Z,16.00
2022-10-01T06:35:04.573Z,15.30
2022-10-01T06:37:32.221Z,13.80
2022-10-01T06:40:00.215Z,14.30
2022-10-01T06:42:27.819Z,14.50
2022-10-01T06:44:55.478Z,13.60
2022-10-01T06:47:23.155Z,15.00
2022-10-01T06:49:50.717Z,14.70
2022-10-01T06:52:37.192Z,14.70
2022-10-01T06:55:04.932Z,13.60
2022-10-01T06:57:34.171Z,12.10
2022-10-01T07:00:01.831Z,12.40
2022-10-01T07:02:30.338Z,12.80
2022-10-01T07:04:59.096Z,13.50
2022-10-01T07:07:35.417Z,14.30
2022-10-01T07:10:04.876Z,12.90
2022-10-01T07:12:33.209Z,11.90
2022-10-01T07:15:00.915Z,12.80
2022-10-01T07:17:28.816Z,11.80
2022-10-01T07:19:56.891Z,11.70
2022-10-01T07:22:25.294Z,12.90
2022-10-01T07:24:52.997Z,11.90
2022-10-01T07:27:20.786Z,12.40
2022-10-01T07:29:48.371Z,12.00
2022-10-01T07:32:16.019Z,12.00
2022-10-01T07:34:43.626Z,12.20
2022-10-01T07:37:11.230Z,12.20
2022-10-01T07:39:38.772Z,11.50
2022-10-01T07:42:06.716Z,11.50
2022-10-01T07:44:34.425Z,13.10
2022-10-01T07:47:02.055Z,13.20
2022-10-01T07:49:29.622Z,14.20
2022-10-01T07:51:59.480Z,12.60
2022-10-01T07:54:27.100Z,11.40
2022-10-01T07:56:56.006Z,10.60
2022-10-01T07:59:23.653Z,11.50
2022-10-01T08:01:54.789Z,12.50
2022-10-01T08:04:41.111Z,11.90
2022-10-01T08:07:08.753Z,11.90
2022-10-01T08:09:36.448Z,13.30
2022-10-01T08:12:04.144Z,13.40
2022-10-01T08:14:31.738Z,13.90
2022-10-01T08:16:59.596Z,13.50
2022-10-01T08:19:27.284Z,13.50
2022-10-01T08:21:54.843Z,14.90
2022-10-01T08:24:22.387Z,14.40
2022-10-01T08:26:55.118Z,16.00
2022-10-01T08:29:22.691Z,16.00
2022-10-01T08:31:50.341Z,16.50
2022-10-01T08:34:18.386Z,15.50
2022-10-01T08:36:51.063Z,15.70
2022-10-01T08:39:18.846Z,16.00
2022-10-01T08:42:00.952Z,15.10
2022-10-01T08:44:30.994Z,15.60
2022-10-01T08:47:06.713Z,15.40
2022-10-01T08:49:40.799Z,15.30
2022-10-01T08:52:29.924Z,14.90
2022-10-01T08:55:06.500Z,14.90
2022-10-01T08:57:39.588Z,16.50
2022-10-01T09:00:11.911Z,15.30
2022-10-01T09:02:40.884Z,14.10
2022-10-01T09:05:11.248Z,13.50
2022-10-01T09:07:48.029Z,13.00
2022-10-01T09:10:27.360Z,13.00
2022-10-01T09:12:58.209Z,12.30
2022-10-01T09:15:25.813Z,12.20
2022-10-01T09:18:11.064Z,12.30
2022-10-01T09:20:44.021Z,12.40
2022-10-01T09:23:31.433Z,13.00
2022-10-01T09:26:00.092Z,11.40
2022-10-01T09:28:29.331Z,11.30
2022-10-01T09:30:57.031Z,10.60
2022-10-01T09:33:29.757Z,11.00
2022-10-01T09:36:22.243Z,10.30
2022-10-01T09:38:59.229Z,10.30
2022-10-01T09:41:26.805Z,9.10
2022-10-01T09:43:54.347Z,9.80
2022-10-01T09:46:22.543Z,9.60
2022-10-01T09:48:53.068Z,9.90
2022-10-01T09:51:20.653Z,10.50
2022-10-01T09:53:53.194Z,10.20
2022-10-01T09:56:25.867Z,10.30
2022-10-01T09:58:55.310Z,10.00
2022-10-01T10:01:38.506Z,10.60
2022-10-01T10:04:06.442Z,9.30
2022-10-01T10:06:34.436Z,9.10
2022-10-01T10:09:02.616Z,8.40
2022-10-01T10:11:31.530Z,7.90
2022-10-01T10:14:00.966Z,8.50
2022-10-01T10:16:29.830Z,7.90
2022-10-01T10:19:02.304Z,8.00
2022-10-01T10:21:30.964Z,6.60
2022-10-01T10:23:59.992Z,6.00
2022-10-01T10:26:28.659Z,5.20
2022-10-01T10:28:59.289Z,5.00
2022-10-01T10:31:28.393Z,5.30
2022-10-01T10:33:58.891Z,5.00
2022-10-01T10:36:29.085Z,4.40
2022-10-01T10:38:57.405Z,4.20
2022-10-01T10:41:26.632Z,3.90
2022-10-01T10:43:56.863Z,3.70
2022-10-01T10:46:28.433Z,4.00
2022-10-01T10:48:58.882Z,3.60
2022-10-01T10:51:28.335Z,3.80
2022-10-01T10:53:56.050Z,3.30
2022-10-01T10:56:24.987Z,3.20
2022-10-01T10:58:53.932Z,3.50
2022-10-01T11:01:26.577Z,3.90
2022-10-01T11:03:56.226Z,3.00
2022-10-01T11:06:24.297Z,3.20
2022-10-01T11:08:59.479Z,3.10
2022-10-01T11:11:51.046Z,3.50
2022-10-01T11:14:25.111Z,3.60
2022-10-01T11:16:52.640Z,3.30
2022-10-01T11:19:23.088Z,3.40
2022-10-01T11:21:58.750Z,3.70
2022-10-01T11:24:38.540Z,3.50
2022-10-01T11:27:11.210Z,3.40
2022-10-01T11:29:48.261Z,3.40
2022-10-01T11:32:36.194Z,3.70
2022-10-01T11:35:16.380Z,3.40
2022-10-01T11:43:41.964Z,3.30
2022-10-01T11:46:24.640Z,2.40
2022-10-01T12:17:20.240Z,3.30
2022-10-01T12:35:34.485Z,3.10
2022-10-01T12:41:02.342Z,3.00
2022-10-01T12:43:47.450Z,3.50
2022-10-01T12:55:36.899Z,4.00
2022-10-01T12:58:22.323Z,4.40
2022-10-01T13:09:30.688Z,4.30
2022-10-01T13:53:18.158Z,5.30
2022-10-01T13:58:46.350Z,5.30
2022-10-01T14:01:21.321Z,5.10
2022-10-01T14:04:10.038Z,5.60
2022-10-01T14:06:37.668Z,5.70
2022-10-01T14:09:26.192Z,5.60
2022-10-01T14:12:18.316Z,5.30
2022-10-01T14:15:30.611Z,5.00
2022-10-01T14:18:01.387Z,4.70
2022-10-01T14:20:33.091Z,5.50
2022-10-01T14:23:27.167Z,5.50
2022-10-01T14:25:54.733Z,5.00
2022-10-01T14:28:28.290Z,5.50
2022-10-01T14:31:01.633Z,5.50
2022-10-01T14:34:06.259Z,5.30
2022-10-01T14:36:35.558Z,5.40
2022-10-01T14:39:04.904Z,5.10
2022-10-01T14:41:34.059Z,5.30
2022-10-01T14:44:02.177Z,5.70
2022-10-01T14:46:29.826Z,4.90
2022-10-01T14:48:59.452Z,4.80
2022-10-01T14:51:28.741Z,4.80
2022-10-01T14:53:58.120Z,5.90
2022-10-01T14:56:26.539Z,6.00
2022-10-01T14:58:56.712Z,5.70
2022-10-01T15:01:25.604Z,6.10
2022-10-01T15:03:53.775Z,5.80
2022-10-01T15:06:24.772Z,6.10
2022-10-01T15:08:53.642Z,6.10
2022-10-01T15:11:25.978Z,5.90
2022-10-01T15:13:55.310Z,6.50
2022-10-01T15:16:27.910Z,6.00
2022-10-01T15:18:57.441Z,5.80
2022-10-01T15:21:27.072Z,6.60
2022-10-01T15:23:54.737Z,7.10
2022-10-01T15:26:23.734Z,6.70
2022-10-01T15:29:01.376Z,6.90
2022-10-01T15:31:29.099Z,7.60
2022-10-01T15:33:56.863Z,8.00
2022-10-01T15:36:24.601Z,6.90
2022-10-01T15:38:53.346Z,5.50
2022-10-01T15:41:31.558Z,5.90
2022-10-01T15:44:04.510Z,6.20
2022-10-01T15:46:34.970Z,6.80
2022-10-01T15:49:15.041Z,7.00
2022-10-01T15:52:20.654Z,7.80
2022-10-01T15:54:56.724Z,7.60
2022-10-01T15:57:25.966Z,8.00
2022-10-01T15:59:54.563Z,7.40
2022-10-01T16:02:27.263Z,6.90
2022-10-01T16:07:29.680Z,8.30
2022-10-01T16:09:58.393Z,9.00
2022-10-01T16:12:29.495Z,9.60
2022-10-01T16:14:59.099Z,9.80
2022-10-01T16:17:28.290Z,9.20
2022-10-01T16:20:00.290Z,8.30
2022-10-01T16:22:34.683Z,8.40
2022-10-01T16:25:07.175Z,8.10
2022-10-01T16:27:45.549Z,9.20
2022-10-01T16:30:20.137Z,9.70
2022-10-01T16:32:47.837Z,9.50
2022-10-01T16:35:25.531Z,9.40
2022-10-01T16:37:54.991Z,8.40
2022-10-01T16:40:24.510Z,8.80
2022-10-01T16:42:52.399Z,9.90
2022-10-01T16:45:27.752Z,13.40
2022-10-01T16:47:58.723Z,20.20
2022-10-01T16:50:26.519Z,21.90
2022-10-01T16:52:55.898Z,19.90
2022-10-01T16:55:24.979Z,17.60
2022-10-01T16:57:56.544Z,14.70
2022-10-01T17:00:25.923Z,13.10
2022-10-01T17:02:54.403Z,12.30
2022-10-01T17:05:25.329Z,12.10
2022-10-01T17:07:53.823Z,14.90
2022-10-01T17:10:25.349Z,14.40
2022-10-01T17:12:54.001Z,15.20
2022-10-01T17:15:26.435Z,16.20
2022-10-01T17:17:55.238Z,16.40
2022-10-01T17:20:23.569Z,14.50
2022-10-01T17:22:51.793Z,14.50
2022-10-01T17:25:23.593Z,14.90
2022-10-01T17:27:51.269Z,15.30
2022-10-01T17:30:18.990Z,15.00
2022-10-01T17:32:46.699Z,14.30
2022-10-01T17:35:15.279Z,15.00
2022-10-01T17:37:43.092Z,15.00
2022-10-01T17:40:11.274Z,14.20
2022-10-01T17:42:39.173Z,13.00
2022-10-01T17:45:08.171Z,12.30
2022-10-01T17:47:35.931Z,15.10
2022-10-01T17:50:03.886Z,17.10
2022-10-01T17:52:32.608Z,15.60
2022-10-01T17:55:03.681Z,14.70
2022-10-01T17:57:31.636Z,13.20
2022-10-01T17:59:59.286Z,15.60
2022-10-01T18:02:41.577Z,17.10
2022-10-01T18:07:40.583Z,17.10
2022-10-01T18:10:09.482Z,19.30
2022-10-01T18:12:37.323Z,19.50
2022-10-01T18:15:05.398Z,16.90
2022-10-01T18:17:33.629Z,15.10
2022-10-01T18:20:02.498Z,15.80
2022-10-01T18:22:30.257Z,13.80
2022-10-01T18:24:57.873Z,14.00
2022-10-01T18:27:26.051Z,14.20
2022-10-01T18:29:53.691Z,14.90
2022-10-01T18:32:23.046Z,14.20
2022-10-01T18:34:50.671Z,14.10
2022-10-01T18:37:30.431Z,12.90
2022-10-01T18:40:03.577Z,12.10
2022-10-01T18:42:40.665Z,16.30
2022-10-01T18:45:13.810Z,14.80
2022-10-01T18:47:54.972Z,15.00
2022-10-01T18:50:28.702Z,13.60
2022-10-01T18:52:56.240Z,12.90
2022-10-01T18:55:42.316Z,13.90
2022-10-01T18:58:15.132Z,13.90
2022-10-01T19:01:15.934Z,14.60
2022-10-01T19:03:49.355Z,15.70
2022-10-01T19:06:22.825Z,16.20
2022-10-01T19:09:13.809Z,16.00
2022-10-01T19:11:46.150Z,15.30
2022-10-01T19:14:23.040Z,14.10
2022-10-01T19:16:58.017Z,13.10
2022-10-01T19:19:25.595Z,13.30
2022-10-01T19:22:12.258Z,14.30
2022-10-01T19:24:42.838Z,15.10
2022-10-01T19:27:35.346Z,15.20
2022-10-01T19:30:06.233Z,15.20
2022-10-01T19:32:36.509Z,15.90
2022-10-01T19:35:13.603Z,14.00
2022-10-01T19:37:44.945Z,16.90
2022-10-01T19:40:25.626Z,17.40
2022-10-01T19:43:01.169Z,19.00
2022-10-01T19:45:47.652Z,18.70
2022-10-01T19:48:34.266Z,16.70
2022-10-01T19:51:07.965Z,17.90
2022-10-01T19:53:39.881Z,14.60
2022-10-01T19:56:07.569Z,14.80
2022-10-01T19:58:35.212Z,15.40
2022-10-01T20:01:03.535Z,14.60
2022-10-01T20:03:34.560Z,14.80
2022-10-01T20:06:10.440Z,15.30
2022-10-01T20:08:41.918Z,16.80
2022-10-01T20:11:13.797Z,16.60
2022-10-01T20:13:46.330Z,16.50
2022-10-01T20:16:14.924Z,16.20
2022-10-01T20:18:54.721Z,16.00
2022-10-01T20:21:29.874Z,15.60
2022-10-01T20:24:18.183Z,15.10
2022-10-01T20:27:00.173Z,16.70
2022-10-01T20:29:43.473Z,17.80
2022-10-01T20:32:11.056Z,17.10
2022-10-01T20:34:44.764Z,18.50
2022-10-01T20:37:35.158Z,16.50
2022-10-01T20:40:05.426Z,16.20
2022-10-01T20:42:39.501Z,16.40
2022-10-01T20:45:14.644Z,16.60
2022-10-01T20:47:47.778Z,16.70
2022-10-01T20:50:38.668Z,16.90
2022-10-01T20:53:15.001Z,15.50
2022-10-01T20:55:45.787Z,16.70
2022-10-01T20:58:19.924Z,16.10
2022-10-01T21:00:48.327Z,16.30
2022-10-01T21:03:34.049Z,16.50
2022-10-01T21:06:30.206Z,16.90
2022-10-01T21:09:00.268Z,16.30
2022-10-01T21:11:40.321Z,16.70
2022-10-01T21:14:10.705Z,16.00
2022-10-01T21:16:46.951Z,16.50
2022-10-01T21:19:29.745Z,17.10
2022-10-01T21:22:05.054Z,17.80
2022-10-01T21:24:44.527Z,15.70
2022-10-01T21:27:18.150Z,15.50
2022-10-01T21:29:54.577Z,14.80
2022-10-01T21:32:22.295Z,14.90
2022-10-01T21:35:10.041Z,15.40
2022-10-01T21:37:41.477Z,15.10
2022-10-01T21:40:17.866Z,14.60
2022-10-01T21:43:05.991Z,14.60
2022-10-01T21:45:52.419Z,14.50
2022-10-01T21:48:32.530Z,12.80
2022-10-01T21:51:14.325Z,13.80
2022-10-01T21:53:56.818Z,13.20
2022-10-01T21:56:34.650Z,10.50
2022-10-01T21:59:07.870Z,10.30
2022-10-01T22:01:41.391Z,10.10
2022-10-01T22:04:15.849Z,6.90
2022-10-01T22:06:45.939Z,7.30
2022-10-01T22:09:16.906Z,7.30
2022-10-01T22:11:48.646Z,6.60
2022-10-01T22:14:18.340Z,6.10
2022-10-01T22:17:03.509Z,7.80
2022-10-01T22:19:39.215Z,8.30
2022-10-01T22:22:11.366Z,6.70
2022-10-01T22:24:41.256Z,6.70
2022-10-01T22:27:11.725Z,6.70
2022-10-01T22:29:42.612Z,6.80
2022-10-01T22:32:12.043Z,6.50
2022-10-01T22:34:42.385Z,7.60
2022-10-01T22:37:17.207Z,8.00
2022-10-01T22:39:49.032Z,6.60
2022-10-01T22:42:20.924Z,7.30
2022-10-01T22:44:48.520Z,7.50
2022-10-01T22:47:31.152Z,7.90
2022-10-01T22:50:06.974Z,7.80
2022-10-01T22:52:34.583Z,5.60
2022-10-01T22:55:02.127Z,4.90
2022-10-01T22:57:38.615Z,4.50
2022-10-01T23:00:07.238Z,4.30
2022-10-01T23:02:35.065Z,3.70
2022-10-01T23:05:06.386Z,3.90
2022-10-01T23:07:33.905Z,3.30
2022-10-01T23:10:10.541Z,3.80
2022-10-01T23:12:47.302Z,3.70
2022-10-01T23:15:20.884Z,3.90
2022-10-01T23:17:48.443Z,3.70
2022-10-01T23:20:19.042Z,4.10
2022-10-01T23:22:55.765Z,4.20
2022-10-01T23:25:41.751Z,4.30
2022-10-01T23:28:13.623Z,4.30
2022-10-01T23:30:59.877Z,4.20
2022-10-01T23:33:30.300Z,4.10
2022-10-01T23:36:00.766Z,5.00
2022-10-01T23:38:31.080Z,4.00
2022-10-01T23:41:02.122Z,4.00
2022-10-01T23:43:29.648Z,4.30
2022-10-01T23:46:03.705Z,4.70
2022-10-01T23:48:38.252Z,4.00
2022-10-01T23:51:24.704Z,4.30
2022-10-01T23:53:52.215Z,4.30
2022-10-01T23:56:41.467Z,3.80
2022-10-01T23:59:24.607Z,3.60
